Weather observations for the past three days for
Mena, Mena Intermountain Municipal Airport
Imperial (Metric)
Date Time (cdt) Wind (mph) Vis. (mi.) Weather Sky Cond. Temperature (ºF) Relative Humidity Wind Chill (°F) Heat Index (°F) Pressure Precipitation (in)
Air Dwpt 6 hour altimeter (in) sea level (mb) 1 hr 3 hr 6 hr
Max. Min.
06 07:35 NE 10 4.00 Fog/Mist BKN007 OVC014 52.2 52.2 100% 29.92 0.0
06 07:15 NE 8 8.00 Overcast OVC005 52.9 52.9 100% 29.91 0.0
06 06:55 NE 8 4.00 Fog/Mist OVC005 52.9 52.9 60.3 52.3 100% 29.88 0.0
06 06:35 NE 7 5.00 Fog/Mist OVC005 52.9 52.9 100% 29.87 0.0
06 06:15 NE 8 6.00 Light Rain Fog/Mist OVC004 52.7 52.7 100% 29.86 0.0
06 05:55 NE 6 6.00 Light Rain Fog/Mist OVC004 52.5 52.5 100% 29.84 0.0
06 05:35 NE 6 6.00 Fog/Mist OVC003 52.5 52.5 100% 29.84 0.0
06 05:15 NE 9 5.00 Light Rain Fog/Mist BKN005 OVC009 52.5 52.5 100% 29.83 0.0
06 04:55 NE 8 9.00 Overcast OVC009 53.2 53.2 100% 29.82 0.0
06 04:35 E 5 10.00 Overcast BKN008 OVC013 54 54 100% 29.82 0.0
06 04:15 E 5 10.00 Overcast OVC011 54 54 100% 29.81 0.0
06 03:55 E 6 10.00 Overcast OVC007 53.6 53.6 100% 29.79 0.0
06 03:35 E 5 10.00 Overcast OVC007 53.8 53.8 100% 29.79 0.0
06 03:15 Calm 4.00 Rain Fog/Mist SCT008 OVC012 54.1 54.1 100% 29.79 0.0
06 02:55 Calm 3.00 Light Rain Fog/Mist OVC006 57.4 57.4 100% 29.8 0.0
06 02:35 NE 6 1.25 Thunderstorm Heavy Rain Fog/Mist SCT004 OVC010 58.1 58.1 100% 29.76 0.0
06 02:15 Calm 2.50 Light Rain Fog/Mist Thunderstorm in Vicinity FEW005 SCT008 OVC014 57.6 57.6 100% 29.75 0.0
06 01:55 W 18 G 23 8.00 Thunderstorm Light Rain OVC010 57.6 54.9 91% 29.83 0.0
06 01:35 NE 9 9.00 Mostly Cloudy BKN011 58.1 55.6 91% 29.75 0.0
06 00:55 NE 3 9.00 Mostly Cloudy BKN017 BKN026 60.6 57 75 60.6 88% 29.76 0.0
06 00:35 Calm 10.00 Overcast BKN017 OVC025 62.2 58.5 88% 29.76 0.0
06 00:15 W 5 10.00 Mostly Cloudy BKN016 BKN023 63.1 59.2 87% 29.76 0.0
05 23:55 W 7 10.00 Partly Cloudy SCT017 SCT024 64.9 61.2 88% 29.76 0.0
05 23:35 W 7 10.00 A Few Clouds FEW021 65.1 61.7 89% 29.75 0.0
05 23:15 W 6 10.00 Partly Cloudy SCT024 65.8 62.1 88% 29.75 0.0
05 22:55 W 7 10.00 Partly Cloudy SCT026 67.8 63.3 86% 29.73 0.0
05 22:35 W 7 10.00 Partly Cloudy SCT029 68.2 63.9 86% 29.72 0.0
05 22:15 W 12 10.00 Partly Cloudy SCT029 70.9 66.7 87% 29.71 0.0
05 21:55 W 3 10.00 A Few Clouds FEW038 74.3 68.7 83% 29.7 0.0
05 21:35 Vrbl 5 10.00 Fair CLR 75 68.4 80% 76 29.69 0.0
05 21:15 SW 6 10.00 Fair CLR 74.7 68.4 81% 29.68 0.0
05 20:55 Vrbl 5 10.00 Fair CLR 74.5 68.4 81% 29.68 0.0
05 20:35 Vrbl 5 10.00 Fair CLR 74.5 68.4 81% 29.67 0.0
05 20:15 Vrbl 5 10.00 Fair CLR 74.5 68.5 82% 29.68 0.0
05 19:55 Vrbl 3 10.00 Fair CLR 74.5 68.7 82% 29.68 0.0
05 19:35 Vrbl 5 10.00 Fair CLR 74.7 68.5 81% 29.67 0.0
05 19:15 Vrbl 5 10.00 Fair CLR 74.7 68.7 82% 29.67 0.0
05 18:55 Vrbl 5 10.00 Fair CLR 74.8 68.5 77 72.5 81% 29.66 0.0
05 18:35 Vrbl 5 10.00 Fair CLR 75 68.7 81% 76 29.66 0.0
05 18:15 Calm 10.00 Fair CLR 75.4 68.9 80% 76 29.65 0.0
05 17:55 SW 5 10.00 Fair CLR 75.9 68.9 79% 77 29.66 0.0
05 17:35 Calm 8.00 Fair CLR 75.9 69.1 79% 77 29.65 0.0
05 17:15 Vrbl 3 9.00 A Few Clouds FEW023 75.9 69.1 79% 77 29.65 0.0
05 16:55 Vrbl 5 10.00 A Few Clouds FEW370 76.8 68.9 77% 78 29.65 0.0
05 16:35 Calm 10.00 A Few Clouds FEW044 76.5 68.9 78% 78 29.65 0.0
05 16:15 Calm 10.00 A Few Clouds FEW041 75.7 69.1 80% 77 29.67 0.0
05 15:55 Vrbl 6 10.00 A Few Clouds FEW340 75.9 68.2 77% 77 29.67 0.0
05 15:35 Calm 9.00 A Few Clouds FEW350 75.6 68.4 78% 77 29.66 0.0
05 15:15 Vrbl 3 10.00 A Few Clouds FEW024 74.1 67.3 79% 29.67 0.0
05 14:55 W 8 9.00 Partly Cloudy FEW018 SCT042 75.4 67.6 77% 76 29.69 0.0
05 14:35 Vrbl 6 9.00 Partly Cloudy FEW018 SCT023 75.7 67.6 76% 77 29.68 0.0
05 14:15 Vrbl 5 9.00 Partly Cloudy SCT016 SCT380 74.3 67.5 79% 29.69 0.0
05 13:55 Vrbl 6 10.00 Mostly Cloudy SCT015 SCT043 SCT290 BKN320 74.7 67.3 78% 29.66 0.0
05 13:35 Vrbl 5 9.00 Mostly Cloudy SCT014 BKN043 BKN320 BKN380 74.5 67.3 78% 29.68 0.0
05 13:15 Vrbl 5 10.00 Partly Cloudy SCT013 73.9 67.1 79% 29.68 0.0
05 12:55 Vrbl 7 10.00 Mostly Cloudy BKN012 BKN047 72.1 66.7 72.1 64.6 83% 29.69 0.0
05 12:35 Vrbl 5 9.00 Mostly Cloudy BKN011 72 66.6 83% 29.69 0.0
05 12:15 Vrbl 3 9.00 Overcast BKN010 OVC017 70.5 66.4 87% 29.69 0.0
05 11:55 Vrbl 3 9.00 Overcast OVC010 68.5 65.7 91% 29.71 0.0
05 11:35 Vrbl 3 8.00 Overcast OVC010 68.4 65.5 91% 29.71 0.0
05 11:15 Vrbl 3 9.00 Overcast OVC010 68.9 65.5 89% 29.7 0.0
05 10:55 Calm 7.00 Overcast OVC010 67.6 65.3 92% 29.7 0.0
05 10:35 Vrbl 3 7.00 Overcast OVC009 67.1 65.1 93% 29.71 0.0
05 10:15 Vrbl 5 7.00 Overcast OVC009 66.7 64.9 94% 29.71 0.0
05 09:55 Calm 6.00 Fog/Mist OVC009 66.4 64.6 94% 29.71 0.0
05 09:35 Vrbl 3 7.00 Overcast OVC009 66.4 64.2 93% 29.71 0.0
05 09:15 Vrbl 3 5.00 Fog/Mist OVC009 66.4 64.2 93% 29.7 0.0
05 08:55 Calm 7.00 Overcast OVC009 66 64 93% 29.7 0.0
05 08:35 Vrbl 5 6.00 Fog/Mist OVC009 65.8 64 94% 29.7 0.0
05 08:15 Vrbl 7 6.00 Fog/Mist OVC008 65.3 63.9 95% 29.69 0.0
05 07:55 Vrbl 5 7.00 Overcast OVC009 65.3 63.5 94% 29.69 0.0
05 07:35 Vrbl 5 6.00 Fog/Mist OVC009 64.9 63.3 95% 29.68 0.0
05 07:15 SW 8 7.00 Overcast BKN009 OVC014 64.8 63.1 95% 29.67 0.0
05 06:55 Vrbl 5 6.00 Fog/Mist BKN010 OVC015 64.2 62.8 69.6 64.2 95% 29.66 0.0
05 06:35 SW 8 5.00 Fog/Mist BKN010 OVC015 64.2 62.4 94% 29.67 0.0
05 06:15 SW 8 7.00 Overcast OVC011 64.4 62.2 93% 29.66 0.0
05 05:55 SW 9 8.00 Overcast OVC012 65.1 62.1 90% 29.66 0.0
05 05:35 Vrbl 7 9.00 Overcast OVC013 65.1 61.7 89% 29.66 0.0
05 05:15 SW 7 G 21 9.00 Overcast BKN014 OVC022 66 61.9 87% 29.66 0.0
05 04:55 SW 8 G 20 10.00 Mostly Cloudy BKN015 BKN027 66 61.2 84% 29.66 0.0
05 04:35 SW 8 G 17 10.00 Mostly Cloudy BKN015 66.4 61.2 83% 29.66 0.0
05 04:15 SW 9 10.00 Mostly Cloudy BKN016 66.6 60.6 81% 29.67 0.0
05 03:55 SW 9 G 16 10.00 Mostly Cloudy BKN019 67.1 61 81% 29.66 0.0
05 03:35 SE 7 G 18 10.00 Mostly Cloudy BKN019 66.7 59.9 79% 29.67 0.0
05 03:15 SW 7 G 23 10.00 A Few Clouds FEW020 67.1 59.9 78% 29.66 0.0
05 02:55 SW 12 G 18 10.00 Fair CLR 67.3 59.4 76% 29.67 0.0
05 02:35 Vrbl 7 10.00 A Few Clouds FEW140 67.6 59 74% 29.67 0.0
05 02:15 SW 8 10.00 A Few Clouds FEW140 68 59 73% 29.69 0.0
05 01:55 SW 8 10.00 Fair CLR 68.4 57.7 69% 29.69 0.0
05 01:35 Vrbl 7 10.00 Fair CLR 68.4 56.8 67% 29.7 0.0
05 01:15 Vrbl 6 10.00 A Few Clouds FEW038 69.1 56.1 64% 29.71 0.0
05 00:55 Vrbl 5 10.00 Mostly Cloudy BKN040 69.8 55.8 73.2 69.3 61% 29.72 0.0
05 00:35 SW 8 10.00 Overcast OVC041 70.3 54.9 58% 29.72 0.0
05 00:15 Vrbl 3 10.00 Overcast OVC043 70.5 54.1 56% 29.73 0.0
04 23:55 Vrbl 6 10.00 Partly Cloudy SCT046 70.3 53.4 55% 29.74 0.0
04 23:35 Vrbl 6 10.00 Fair CLR 70.3 53.2 55% 29.74 0.0
04 23:15 Vrbl 6 10.00 A Few Clouds FEW046 70.5 53.2 54% 29.75 0.0
04 22:55 Vrbl 6 10.00 Fair CLR 70.5 53.2 54% 29.76 0.0
04 22:35 Calm 10.00 Fair CLR 70.2 53.8 56% 29.75 0.0
04 22:15 Vrbl 5 10.00 Fair CLR 70.2 54 57% 29.76 0.0
04 21:55 Vrbl 3 10.00 Fair CLR 70 54.1 57% 29.75 0.0
04 21:35 Vrbl 3 10.00 Fair CLR 70 54.7 58% 29.76 0.0
04 21:15 Calm 10.00 Fair CLR 69.4 54.9 60% 29.75 0.0
04 20:55 Calm 10.00 Fair CLR 69.6 55 60% 29.74 0.0
04 20:35 Calm 10.00 Fair CLR 70.3 55 59% 29.73 0.0
04 20:15 Calm 10.00 Fair CLR 70.2 55 59% 29.73 0.0
04 19:55 Vrbl 6 10.00 Fair CLR 70.9 55.4 58% 29.73 0.0
04 19:35 Vrbl 5 9.00 Fair CLR 71.6 55.4 57% 29.73 0.0
04 19:15 Vrbl 3 10.00 Fair CLR 73 55.8 55% 29.73 0.0
04 18:55 Vrbl 3 10.00 Fair CLR 73.6 55.6 77.4 73.6 53% 29.74 0.0
04 18:35 Vrbl 5 10.00 Fair CLR 73.9 55 52% 29.74 0.0
04 18:15 Vrbl 6 10.00 Fair CLR 73.9 55 52% 29.74 0.0
04 17:55 Vrbl 3 10.00 Fair CLR 74.3 54.7 51% 29.74 0.0
04 17:35 Vrbl 6 10.00 Fair CLR 74.7 54.9 50% 29.75 0.0
04 17:15 SW 8 10.00 Fair CLR 75.7 54.7 48% 78 29.75 0.0
04 16:55 Vrbl 3 10.00 Fair CLR 76.3 55 48% 78 29.76 0.0
04 16:35 Vrbl 7 10.00 Fair CLR 77 55.8 48% 79 29.77 0.0
04 16:15 Vrbl 5 10.00 Fair CLR 76.8 55.6 48% 78 29.78 0.0
04 15:55 Vrbl 5 10.00 Fair CLR 76.8 55.2 47% 78 29.79 0.0
04 15:35 Vrbl 3 10.00 Fair CLR 75.7 54.3 47% 78 29.8 0.0
04 15:15 Vrbl 6 10.00 A Few Clouds FEW340 76.5 54.3 46% 78 29.81 0.0
04 14:55 SW 9 10.00 A Few Clouds FEW360 75.7 53.1 45% 78 29.83 0.0
04 14:35 S 7 G 16 10.00 A Few Clouds FEW360 75.7 53.6 46% 78 29.83 0.0
04 14:15 Vrbl 6 10.00 A Few Clouds FEW055 76.5 53.8 45% 78 29.85 0.0
04 13:55 SW 8 10.00 Fair CLR 75.4 52.5 45% 78 29.85 0.0
04 13:35 SW 8 G 18 10.00 Fair CLR 75.4 53.1 46% 78 29.86 0.0
04 13:15 SW 9 10.00 Fair CLR 74.5 52.7 47% 29.87 0.0
04 12:55 W 9 10.00 Fair CLR 74.1 53.1 74.1 60.8 48% 29.88 0.0
04 12:35 SW 12 G 21 10.00 Fair CLR 73.6 52.5 48% 29.89 0.0
04 12:15 SW 12 G 18 10.00 Fair CLR 73 52.2 48% 29.89 0.0
04 11:55 SW 8 10.00 Fair CLR 72.5 52.3 49% 29.89 0.0
04 11:35 SW 9 G 22 10.00 Fair CLR 72 52.7 51% 29.9 0.0
04 11:15 W 8 G 21 10.00 Fair CLR 71.2 52.3 51% 29.9 0.0
04 10:55 SW 9 G 17 10.00 Fair CLR 70.5 52 52% 29.9 0.0
04 10:35 SW 13 G 18 10.00 Fair CLR 69.8 51.6 53% 29.91 0.0
04 10:15 W 12 10.00 Fair CLR 69.8 52 53% 29.91 0.0
04 09:55 Vrbl 7 10.00 Fair CLR 68.5 52.3 56% 29.92 0.0
04 09:35 W 12 G 18 10.00 Fair CLR 67.3 50.9 56% 29.92 0.0
04 09:15 W 9 10.00 Fair CLR 66.4 51.6 59% 29.93 0.0
04 08:55 W 9 G 18 10.00 Fair CLR 65.3 51.8 62% 29.93 0.0
04 08:35 W 8 10.00 Fair CLR 64.4 51.4 63% 29.92 0.0
04 08:15 Vrbl 6 10.00 Fair CLR 63.3 50.9 64% 29.92 0.0
04 07:55 Vrbl 7 10.00 Fair CLR 62.4 50 64% 29.92 0.0
04 07:35 W 12 G 18 10.00 Fair CLR 62.2 48.9 62% 29.92 0.0
04 07:15 W 6 10.00 Fair CLR 61.7 47.8 61% 29.92 0.0
04 06:55 Vrbl 5 10.00 Fair CLR 60.3 47.5 68.4 56.5 63% 29.91 0.0
04 06:35 Vrbl 5 10.00 Fair CLR 60.6 47.1 61% 29.91 0.0
04 06:15 W 6 10.00 Fair CLR 61.2 47.1 60% 29.9 0.0
04 05:55 SW 5 10.00 Fair CLR 60.8 47.1 61% 29.9 0.0
04 05:35 SW 5 10.00 Fair CLR 60.6 46.9 61% 29.9 0.0
04 05:15 W 5 10.00 Fair CLR 61.5 46.8 59% 29.91 0.0
04 04:55 W 3 10.00 Fair CLR 60.6 47.1 61% 29.91 0.0
04 04:35 W 3 10.00 Fair CLR 58.5 47.7 68% 29.92 0.0
04 04:15 W 5 10.00 Fair CLR 61.9 46.8 58% 29.92 0.0
04 03:55 W 5 10.00 Fair CLR 61.2 46.4 59% 29.92 0.0
04 03:35 W 5 10.00 Fair CLR 59.9 46 60% 29.92 0.0
04 03:15 W 3 10.00 Fair CLR 60.4 46.2 60% 29.92 0.0
04 02:55 W 6 10.00 Fair CLR 66 44.4 46% 29.93 0.0
04 02:35 W 9 10.00 Fair CLR 67.3 43.5 42% 29.93 0.0
04 02:15 W 7 10.00 Fair CLR 67.5 43.7 42% 29.94 0.0
04 01:55 Vrbl 6 10.00 Fair CLR 68 43.7 42% 29.95 0.0
04 01:35 SW 6 10.00 Fair CLR 68.2 43.7 41% 29.95 0.0
04 01:15 Vrbl 7 10.00 Fair CLR 68 44.4 43% 29.96 0.0
04 00:55 W 5 10.00 Fair CLR 67.8 45.3 75.6 67.8 45% 29.96 0.0
04 00:35 Vrbl 7 10.00 Fair CLR 68 45.9 45% 29.96 0.0
04 00:15 Vrbl 5 10.00 Fair CLR 68.2 46 45% 29.96 0.0
03 23:55 SW 7 10.00 Fair CLR 68.7 46.4 45% 29.97 0.0
03 23:35 Vrbl 6 10.00 Fair CLR 68.5 46.8 46% 29.97 0.0
03 23:15 Vrbl 7 10.00 Fair CLR 68.7 47.3 47% 29.97 0.0
03 22:55 Vrbl 6 10.00 Fair CLR 69.3 48 47% 29.97 0.0
03 22:35 Vrbl 5 10.00 Fair CLR 69.3 48.7 48% 29.97 0.0
03 22:15 Vrbl 5 10.00 Fair CLR 69.8 48.9 48% 29.97 0.0
03 21:55 Vrbl 6 10.00 Fair CLR 70.2 49.8 49% 29.97 0.0
03 21:35 Vrbl 6 10.00 Fair CLR 69.8 50.4 50% 29.97 0.0
03 21:15 Vrbl 6 10.00 Fair CLR 70 50.2 50% 29.97 0.0
03 20:55 Calm 10.00 Fair CLR 69.6 50.5 51% 29.96 0.0
03 20:35 Calm 10.00 Fair CLR 69.8 50 50% 29.96 0.0
03 20:15 SW 3 10.00 Fair CLR 71.8 48.9 44% 29.95 0.0
03 19:55 Vrbl 3 10.00 Fair CLR 72.5 49.1 44% 29.95 0.0
03 19:35 Vrbl 3 10.00 Fair CLR 73.8 48.9 42% 29.95 0.0
03 19:15 SW 5 10.00 Fair CLR 75 48.9 40% 77 29.95 0.0
03 18:55 SW 7 10.00 Fair CLR 75.9 50 79 74.3 40% 78 29.95 0.0
03 18:35 Vrbl 5 10.00 Fair CLR 76.3 49.6 39% 78 29.96 0.0
03 18:15 Vrbl 7 10.00 Fair CLR 77.4 49.5 38% 78 29.96 0.0
03 17:55 Vrbl 5 10.00 Fair CLR 77.7 50.7 39% 79 29.96 0.0
03 17:35 SW 7 10.00 Fair CLR 78.1 51.3 39% 79 29.96 0.0
03 17:15 Vrbl 6 10.00 A Few Clouds FEW070 78.1 52.2 41% 79 29.97 0.0
03 16:55 SW 7 10.00 A Few Clouds FEW070 78.8 51.8 39% 79 29.97 0.0
03 16:35 W 8 10.00 Fair CLR 79 51.1 38% 79 29.97 0.0
03 16:15 Vrbl 5 10.00 A Few Clouds FEW065 77.7 52 41% 79 29.98 0.0
03 15:55 SW 8 10.00 Fair CLR 77.5 52 41% 79 30 0.0
03 15:35 W 10 G 17 10.00 Fair CLR 78.1 52.9 42% 79 30.01 0.0
03 15:15 Vrbl 7 10.00 Fair CLR 77.5 51.3 40% 78 30.02 0.0
03 14:55 SW 6 G 18 10.00 Fair CLR 76.8 52.2 42% 78 30.03 0.0
03 14:35 W 7 10.00 Fair CLR 77.4 52.7 42% 79 30.03 0.0
03 13:55 W 12 G 17 10.00 A Few Clouds FEW350 76.1 50.4 41% 78 30.06 0.0
03 13:35 SW 8 10.00 Fair CLR 75.7 50.5 41% 78 30.07 0.0
03 13:15 SW 8 10.00 Fair CLR 74.5 49.8 42% 30.07 0.0
03 12:55 SW 10 10.00 A Few Clouds FEW340 73.6 49.1 73.9 41.5 42% 30.09 0.0
03 12:35 W 12 G 16 10.00 Fair CLR 72.9 48.6 42% 30.1 0.0
03 12:15 Vrbl 6 7.00 Fair CLR 72 47.8 42% 30.1 0.0
03 11:55 W 6 3.00 Fair with Haze CLR 71.4 46.9 42% 30.11 0.0
03 11:35 W 7 7.00 Fair CLR 70.3 46.4 43% 30.12 0.0
03 11:15 SW 9 8.00 Fair CLR 69.3 44.6 41% 30.13 0.0
03 10:55 SW 8 8.00 Fair CLR 68.7 43.7 41% 30.13 0.0
03 10:35 Vrbl 6 4.00 Fair with Haze CLR 67.6 42.3 40% 30.14 0.0
03 10:15 SW 8 4.00 Fair with Haze CLR 66.7 41.2 39% 30.14 0.0
03 09:55 Calm 3.00 Fair with Haze CLR 64 46.2 53% 30.14 0.0
03 09:35 NE 5 3.00 Fair with Haze CLR 61.2 47.7 61% 30.15 0.0
03 09:15 Calm 3.00 Fair with Haze CLR 58.3 45.1 62% 30.15 0.0
03 08:55 Calm 3.00 Fair with Haze CLR 54.9 46.6 74% 30.15 0.0
03 08:35 Calm 3.00 Fair with Haze CLR 52.3 45.5 78% 30.15 0.0
03 08:15 Calm 3.00 Fair with Haze CLR 50.2 43 76% 30.15 0.0
03 07:55 Calm 3.00 Fog/Mist CLR 47.3 44.2 89% 30.16 0.0
Date Time (cdt) Wind (mph) Vis. (mi.) Weather Sky Cond. Air Dwpt Max. Min. Relative Humidity Wind Chill (°F) Heat Index (°F) altimeter (in) sea level (mb) 1 hr 3 hr 6 hr
6 hour
Temperature (ºF) Pressure Precipitation (in)